Ashton, South Dakota
Current Conditions -  °F | °C
As of 7:53 PM on Tuesday 25 Nov 2014 (Local Time) from KABR Reporting Station
Light Snow Light Snow  
Wind Chill: -5°   Ceiling: 500
Heat Index:   Visibility: 0.75mi
Dew Point: -2°   Wind: 12mph
Humidity: 88%   Direction: 130°SE
Pressure: 29.8"   Gusts: NA
Location:  44.99°N, 98.5°W
Report Text: KABR 260153Z AUTO 13010KT 3/4SM -SN BR BKN005 OVC009 00/M02 A2980 RMK AO2 SLP107 P0004 T00001017
Loading
Personal Weather Stations






























Interactive Weather Map New forecast layout! Learn more

10-Day Weather Forecast

Advertisements
Track Severe Weather on mobile